createdAt,value
2022-08-05T00:04:24.743Z,180
2022-08-05T00:10:41.132Z,188
2022-08-05T00:17:03.196Z,191
2022-08-05T00:21:20.499Z,194
2022-08-05T00:26:49.810Z,181
2022-08-05T00:32:16.874Z,251
2022-08-05T00:40:04.763Z,269
2022-08-05T00:44:52.655Z,237
2022-08-05T00:50:04.705Z,237
2022-08-05T00:55:54.949Z,213
2022-08-05T01:04:26.756Z,158
2022-08-05T01:09:55.519Z,156
2022-08-05T01:15:47.861Z,88
2022-08-05T01:20:33.657Z,127
2022-08-05T01:25:24.938Z,119
2022-08-05T01:30:02.896Z,108
2022-08-05T01:34:26.659Z,108
2022-08-05T01:39:59.839Z,109
2022-08-05T01:44:09.863Z,109
2022-08-05T01:48:55.693Z,109
2022-08-05T01:54:52.790Z,175
2022-08-05T02:04:12.224Z,175
2022-08-05T02:09:41.196Z,269
2022-08-05T02:14:31.879Z,236
2022-08-05T02:19:47.429Z,236
2022-08-05T02:24:05.862Z,233
2022-08-05T02:28:53.953Z,237
2022-08-05T02:33:48.324Z,237
2022-08-05T02:38:53.098Z,107
2022-08-05T02:43:34.443Z,187
2022-08-05T02:48:57.668Z,185
2022-08-05T02:53:25.222Z,180
2022-08-05T02:59:34.597Z,176
2022-08-05T03:03:34.216Z,175
2022-08-05T03:10:36.200Z,175
2022-08-05T03:15:57.512Z,173
2022-08-05T03:20:54.580Z,171
2022-08-05T03:27:03.951Z,172
2022-08-05T03:32:42.546Z,165
2022-08-05T03:37:26.046Z,164
2022-08-05T03:42:58.231Z,161
2022-08-05T03:48:16.657Z,108
2022-08-05T03:57:48.805Z,107
2022-08-05T04:04:59.705Z,107
2022-08-05T04:09:53.267Z,106
2022-08-05T04:14:41.990Z,106
2022-08-05T04:20:00.242Z,107
2022-08-05T04:26:02.607Z,169
2022-08-05T04:30:45.257Z,168
2022-08-05T04:36:55.552Z,169
2022-08-05T04:42:09.411Z,169
2022-08-05T04:47:09.817Z,169
2022-08-05T04:53:02.189Z,165
2022-08-05T04:58:35.379Z,163
2022-08-05T05:05:02.812Z,170
2022-08-05T05:10:56.326Z,117
2022-08-05T05:16:12.913Z,115
2022-08-05T05:21:33.006Z,126
2022-08-05T05:27:55.708Z,122
2022-08-05T05:32:37.457Z,116
2022-08-05T05:37:29.148Z,114
2022-08-05T05:42:00.295Z,113
2022-08-05T05:47:04.598Z,170
2022-08-05T05:52:05.935Z,186
2022-08-05T05:58:07.627Z,187
2022-08-05T06:05:16.966Z,177
2022-08-05T06:10:16.307Z,175
2022-08-05T06:14:40.555Z,175
2022-08-05T06:20:54.149Z,180
2022-08-05T06:25:24.527Z,125
2022-08-05T06:32:37.655Z,117
2022-08-05T06:39:33.831Z,115
2022-08-05T06:44:33.440Z,117
2022-08-05T06:51:07.341Z,123
2022-08-05T06:55:57.881Z,127
2022-08-05T07:04:04.997Z,179
2022-08-05T07:09:00.202Z,171
2022-08-05T07:14:20.287Z,167
2022-08-05T07:22:08.199Z,185
2022-08-05T07:28:17.576Z,165
2022-08-05T07:34:14.101Z,172
2022-08-05T07:42:39.475Z,107
2022-08-05T07:47:42.421Z,123
2022-08-05T07:52:53.478Z,106
2022-08-05T08:04:50.929Z,408
2022-08-05T08:09:11.182Z,110
2022-08-05T08:14:37.870Z,100
2022-08-05T08:22:03.092Z,182
2022-08-05T08:28:55.190Z,163
2022-08-05T08:34:18.515Z,172
2022-08-05T08:39:55.372Z,162
2022-08-05T08:50:07.897Z,186
2022-08-05T08:56:15.980Z,97
2022-08-05T09:04:16.347Z,107
2022-08-05T09:10:16.602Z,268
2022-08-05T09:16:02.277Z,2101
2022-08-05T09:22:37.922Z,3702
2022-08-05T09:28:53.074Z,3756
2022-08-05T09:34:44.312Z,231
2022-08-05T09:40:57.747Z,298
2022-08-05T09:46:21.137Z,248
2022-08-05T09:52:22.638Z,309
2022-08-05T09:58:34.792Z,174
2022-08-05T10:04:17.409Z,232
2022-08-05T10:10:37.937Z,167
2022-08-05T10:15:07.188Z,181
2022-08-05T10:20:23.908Z,275
2022-08-05T10:25:37.203Z,92
2022-08-05T10:34:12.639Z,242
2022-08-05T10:38:50.611Z,113
2022-08-05T10:44:11.247Z,87
2022-08-05T10:50:42.427Z,170
2022-08-05T10:56:32.845Z,151
2022-08-05T11:05:18.195Z,161
2022-08-05T11:11:22.483Z,234
2022-08-05T11:17:57.253Z,263
2022-08-05T11:24:36.645Z,168
2022-08-05T11:30:16.244Z,169
2022-08-05T11:36:13.033Z,155
2022-08-05T11:43:18.959Z,163
2022-08-05T11:50:07.462Z,152
2022-08-05T11:54:54.706Z,201
2022-08-05T12:03:55.504Z,251
2022-08-05T12:10:01.868Z,262
2022-08-05T12:15:02.040Z,240
2022-08-05T12:21:39.187Z,235
2022-08-05T12:25:47.856Z,240
2022-08-05T12:30:51.539Z,172
2022-08-05T12:35:58.487Z,180
2022-08-05T12:40:35.482Z,173
2022-08-05T12:45:22.098Z,170
2022-08-05T12:51:05.356Z,175
2022-08-05T12:56:51.046Z,170
2022-08-05T13:06:11.648Z,179
2022-08-05T13:12:13.119Z,234
2022-08-05T13:17:55.470Z,234
2022-08-05T13:22:41.488Z,239
2022-08-05T13:28:49.672Z,235
2022-08-05T13:35:53.309Z,233
2022-08-05T13:41:49.471Z,227
2022-08-05T13:47:05.019Z,168
2022-08-05T13:52:41.316Z,170
2022-08-05T13:58:53.427Z,170
2022-08-05T14:04:26.498Z,171
2022-08-05T14:10:43.097Z,170
2022-08-05T14:16:50.141Z,166
2022-08-05T14:22:15.430Z,234
2022-08-05T14:27:21.572Z,239
2022-08-05T14:33:10.634Z,236
2022-08-05T14:38:01.359Z,236
2022-08-05T14:42:49.222Z,234
2022-08-05T14:48:38.688Z,228
2022-08-05T14:54:58.270Z,230
2022-08-05T15:04:43.826Z,175
2022-08-05T15:12:04.520Z,176
2022-08-05T15:18:20.337Z,174
2022-08-05T15:22:39.884Z,178
2022-08-05T15:27:14.865Z,186
2022-08-05T15:31:40.685Z,176
2022-08-05T15:36:56.006Z,253
2022-08-05T15:45:59.879Z,233
2022-08-05T15:51:03.527Z,186
2022-08-05T15:57:13.680Z,172
2022-08-05T16:04:51.639Z,172
2022-08-05T16:09:15.475Z,170
2022-08-05T16:13:46.278Z,109
2022-08-05T16:17:42.209Z,110
2022-08-05T16:23:20.981Z,111
2022-08-05T16:28:57.692Z,109
2022-08-05T16:33:53.493Z,108
2022-08-05T16:40:06.248Z,103
2022-08-05T16:46:37.458Z,100
2022-08-05T16:51:22.346Z,156
2022-08-05T16:56:47.438Z,167
2022-08-05T17:04:16.514Z,178
2022-08-05T17:09:26.694Z,165
2022-08-05T17:14:36.661Z,165
2022-08-05T17:20:08.607Z,176
2022-08-05T17:26:13.884Z,102
2022-08-05T17:31:08.491Z,102
2022-08-05T17:36:40.893Z,112
2022-08-05T17:42:57.679Z,102
2022-08-05T17:48:00.383Z,117
2022-08-05T17:53:00.823Z,101
2022-08-05T17:57:17.833Z,100
2022-08-05T18:05:07.928Z,167
2022-08-05T18:10:37.820Z,163
2022-08-05T18:15:04.302Z,163
2022-08-05T18:20:06.696Z,179
2022-08-05T18:25:32.990Z,160
2022-08-05T18:29:59.881Z,161
2022-08-05T18:34:53.026Z,165
2022-08-05T18:42:26.994Z,100
2022-08-05T18:47:07.838Z,120
2022-08-05T18:53:34.768Z,98
2022-08-05T18:58:36.197Z,99
2022-08-05T19:06:21.973Z,109
2022-08-05T19:10:43.796Z,110
2022-08-05T19:17:20.085Z,146
2022-08-05T19:21:46.157Z,180
2022-08-05T19:27:30.320Z,180
2022-08-05T19:31:57.364Z,189
2022-08-05T19:36:40.953Z,170
2022-08-05T19:42:35.065Z,170
2022-08-05T19:48:27.570Z,173
2022-08-05T19:54:43.017Z,119
2022-08-05T20:03:56.581Z,107
2022-08-05T20:09:06.118Z,110
2022-08-05T20:14:26.619Z,126
2022-08-05T20:19:07.121Z,135
2022-08-05T20:23:17.976Z,119
2022-08-05T20:27:27.304Z,120
2022-08-05T20:32:05.294Z,179
2022-08-05T20:35:59.445Z,292
2022-08-05T20:41:50.619Z,286
2022-08-05T20:47:09.511Z,291
2022-08-05T20:51:27.496Z,289
2022-08-05T20:57:54.580Z,289
2022-08-05T21:04:50.012Z,202
2022-08-05T21:10:06.803Z,184
2022-08-05T21:15:56.854Z,179
2022-08-05T21:20:39.197Z,177
2022-08-05T21:24:57.508Z,182
2022-08-05T21:29:56.541Z,175
2022-08-05T21:34:28.217Z,186
2022-08-05T21:39:34.475Z,177
2022-08-05T21:45:04.385Z,218
2022-08-05T21:51:25.002Z,239
2022-08-05T21:57:48.620Z,255
2022-08-05T22:04:05.856Z,235
2022-08-05T22:09:45.480Z,175
2022-08-05T22:16:52.259Z,175
2022-08-05T22:22:40.487Z,189
2022-08-05T22:29:26.867Z,157
2022-08-05T22:35:08.563Z,188
2022-08-05T22:39:50.423Z,163
2022-08-05T22:44:41.065Z,189
2022-08-05T22:49:07.265Z,178
2022-08-05T22:54:39.899Z,239
2022-08-05T23:05:07.887Z,241
2022-08-05T23:10:07.869Z,240
2022-08-05T23:14:16.953Z,186
2022-08-05T23:19:31.821Z,174
2022-08-05T23:24:17.261Z,186
2022-08-05T23:29:21.456Z,175
2022-08-05T23:34:40.560Z,193
2022-08-05T23:38:58.083Z,185
2022-08-05T23:44:54.439Z,177
2022-08-05T23:49:41.970Z,183
2022-08-05T23:54:49.575Z,185
2022-08-05T23:59:27.754Z,206
